Aeroporto :
LOGIN :

Iscrizione | Disclaimer

   EN    FR    IT 

 










Sommario :    VFR   VFR Marginale   IFR   IFR Intensivo   IFR Molto Intensivo
Visibilità : 
Base nubi : 
>= 8 km
>= 3000ft
5 / 8 km
1000 / 3000 ft
1500m / 5 km
500 / 1000 ft
800 / 1500m
200 / 500 ft
< 800m
< 200 ft
Simboli :   Temporali  Nebbia  Neve Forte  Precipitazioni Forti  Vento > 20 kt
SIGMETs :   Varie  Temporali  Ghiacco  Turbolenza  Onda orograficha  Ceneri Vulcaniche






- Altitudine del aeroporto : 3368 ft


LSGC - Les Eplatures

ULTIMO METAR :
  • 071950Z AUTO 24003KT 9999 BKN009 03/03 Q1020

METARs OBSOLETI :
  • 071920Z AUTO VRB03KT 9999 BKN006 04/03 Q1021
  • 071850Z AUTO 22004KT 180V290 9999 BKN009 03/03 Q1020
  • 071820Z AUTO 25005KT 210V310 9999 BKN007 SCT012 BKN021 04/03 Q1020
  • 071750Z AUTO 23007KT 9999 -DZ SCT006 BKN015 BKN020 04/03 Q1020
  • 071720Z AUTO 23007KT 200V260 9999 BKN004 SCT009 BKN014 04/03 Q1020

TAF AMD TAF LSGC
Valido dal 07 a 17 ore il 08 a 00 ore UTC


071705Z 0717/0724 24007KT 9999 SCT010 BKN025



MetMap, La meteo Aeronautica in un colpo d'occhio ! - Copyright ORBIFLY Dicembre 2007 - Disclaimer

ORBIFLY MET'MAP TEAM :

Programmazione e sviluppo : Alexandra Zaïnal
Concezione : Baudouin d'Aumeries
Aiuto per la programmazione : Marc-Olivier Méhu
Supporto tecnico e logistico : Manuel Goepfert
Aiuto per la traduzione : Arnaldo La Scala

Contatto : metmap@orbifly.com




FONTI E CREDITI :

   NOAA